sensor_id;sensor_type;location;lat;lon;timestamp;P1;durP1;ratioP1;P2;durP2;ratioP2
31686;SDS011;18285;51.330;4.946;2023-05-10T00:16:44;7.47;;;6.73;;
31686;SDS011;18285;51.330;4.946;2023-05-10T00:40:55;9.55;;;8.65;;
31686;SDS011;18285;51.330;4.946;2023-05-10T01:05:06;7.43;;;6.75;;
31686;SDS011;18285;51.330;4.946;2023-05-10T01:54:04;6.85;;;6.20;;
31686;SDS011;18285;51.330;4.946;2023-05-10T02:18:18;8.13;;;7.00;;
31686;SDS011;18285;51.330;4.946;2023-05-10T02:42:29;7.80;;;7.00;;
31686;SDS011;18285;51.330;4.946;2023-05-10T03:06:43;10.68;;;9.57;;
31686;SDS011;18285;51.330;4.946;2023-05-10T03:30:54;12.97;;;11.40;;
31686;SDS011;18285;51.330;4.946;2023-05-10T03:55:06;14.95;;;12.95;;
31686;SDS011;18285;51.330;4.946;2023-05-10T04:19:17;12.70;;;10.63;;
31686;SDS011;18285;51.330;4.946;2023-05-10T04:43:28;9.70;;;8.70;;
31686;SDS011;18285;51.330;4.946;2023-05-10T05:07:39;9.48;;;7.55;;
31686;SDS011;18285;51.330;4.946;2023-05-10T05:31:49;8.95;;;7.32;;
31686;SDS011;18285;51.330;4.946;2023-05-10T05:56:00;13.70;;;6.32;;
31686;SDS011;18285;51.330;4.946;2023-05-10T06:20:11;11.00;;;6.45;;
31686;SDS011;18285;51.330;4.946;2023-05-10T06:44:22;11.10;;;7.55;;
31686;SDS011;18285;51.330;4.946;2023-05-10T07:08:34;9.25;;;5.57;;
31686;SDS011;18285;51.330;4.946;2023-05-10T07:32:44;6.00;;;4.57;;
31686;SDS011;18285;51.330;4.946;2023-05-10T07:56:55;6.32;;;4.72;;
31686;SDS011;18285;51.330;4.946;2023-05-10T08:21:06;4.05;;;3.20;;
31686;SDS011;18285;51.330;4.946;2023-05-10T08:45:17;6.55;;;4.30;;
31686;SDS011;18285;51.330;4.946;2023-05-10T09:33:44;8.15;;;5.65;;
31686;SDS011;18285;51.330;4.946;2023-05-10T09:57:59;7.35;;;3.40;;
31686;SDS011;18285;51.330;4.946;2023-05-10T10:22:11;4.47;;;1.60;;
31686;SDS011;18285;51.330;4.946;2023-05-10T10:46:22;1.73;;;1.40;;
31686;SDS011;18285;51.330;4.946;2023-05-10T11:10:32;14.65;;;11.25;;
31686;SDS011;18285;51.330;4.946;2023-05-10T11:34:46;12.20;;;10.38;;
31686;SDS011;18285;51.330;4.946;2023-05-10T11:58:58;12.07;;;7.95;;
31686;SDS011;18285;51.330;4.946;2023-05-10T12:23:10;10.90;;;7.07;;
31686;SDS011;18285;51.330;4.946;2023-05-10T12:47:24;12.00;;;7.28;;
31686;SDS011;18285;51.330;4.946;2023-05-10T13:11:34;7.82;;;6.18;;
31686;SDS011;18285;51.330;4.946;2023-05-10T13:35:45;6.80;;;4.60;;
31686;SDS011;18285;51.330;4.946;2023-05-10T13:59:56;5.43;;;3.42;;
31686;SDS011;18285;51.330;4.946;2023-05-10T14:24:07;3.95;;;3.30;;
31686;SDS011;18285;51.330;4.946;2023-05-10T14:48:18;3.88;;;3.20;;
31686;SDS011;18285;51.330;4.946;2023-05-10T15:12:28;12.00;;;7.82;;
31686;SDS011;18285;51.330;4.946;2023-05-10T15:36:39;14.32;;;9.52;;
31686;SDS011;18285;51.330;4.946;2023-05-10T16:00:50;6.88;;;5.63;;
31686;SDS011;18285;51.330;4.946;2023-05-10T16:25:01;7.75;;;6.10;;
31686;SDS011;18285;51.330;4.946;2023-05-10T16:49:12;7.20;;;4.72;;
31686;SDS011;18285;51.330;4.946;2023-05-10T17:13:23;5.38;;;4.63;;
31686;SDS011;18285;51.330;4.946;2023-05-10T17:37:33;16.52;;;4.80;;
31686;SDS011;18285;51.330;4.946;2023-05-10T18:01:44;2.75;;;1.65;;
31686;SDS011;18285;51.330;4.946;2023-05-10T18:25:55;2.83;;;1.50;;
31686;SDS011;18285;51.330;4.946;2023-05-10T18:50:06;8.25;;;3.38;;
31686;SDS011;18285;51.330;4.946;2023-05-10T19:14:17;5.35;;;3.95;;
31686;SDS011;18285;51.330;4.946;2023-05-10T19:38:28;4.75;;;3.50;;
31686;SDS011;18285;51.330;4.946;2023-05-10T20:02:39;3.15;;;1.70;;
31686;SDS011;18285;51.330;4.946;2023-05-10T20:26:50;4.55;;;1.75;;
31686;SDS011;18285;51.330;4.946;2023-05-10T20:51:02;6.50;;;1.60;;
31686;SDS011;18285;51.330;4.946;2023-05-10T21:15:13;3.45;;;2.10;;
31686;SDS011;18285;51.330;4.946;2023-05-10T21:39:24;3.63;;;1.95;;
31686;SDS011;18285;51.330;4.946;2023-05-10T22:03:35;4.18;;;2.70;;
31686;SDS011;18285;51.330;4.946;2023-05-10T22:27:45;4.15;;;2.00;;
31686;SDS011;18285;51.330;4.946;2023-05-10T22:51:56;3.60;;;2.35;;
31686;SDS011;18285;51.330;4.946;2023-05-10T23:16:07;4.22;;;2.42;;
31686;SDS011;18285;51.330;4.946;2023-05-10T23:40:18;2.60;;;2.28;;
